sensor_id;sensor_type;location;lat;lon;timestamp;P1;durP1;ratioP1;P2;durP2;ratioP2
8913;SDS011;4492;48.736;9.092;2022-10-16T00:01:10;3.77;;;1.70;;
8913;SDS011;4492;48.736;9.092;2022-10-16T00:03:38;1.77;;;1.67;;
8913;SDS011;4492;48.736;9.092;2022-10-16T00:06:05;1.80;;;1.70;;
8913;SDS011;4492;48.736;9.092;2022-10-16T00:08:31;5.30;;;1.60;;
8913;SDS011;4492;48.736;9.092;2022-10-16T00:11:04;3.30;;;1.97;;
8913;SDS011;4492;48.736;9.092;2022-10-16T00:13:32;4.13;;;2.03;;
8913;SDS011;4492;48.736;9.092;2022-10-16T00:15:59;2.93;;;2.10;;
8913;SDS011;4492;48.736;9.092;2022-10-16T00:18:26;1.83;;;1.73;;
8913;SDS011;4492;48.736;9.092;2022-10-16T00:20:52;1.50;;;1.40;;
8913;SDS011;4492;48.736;9.092;2022-10-16T00:23:18;1.90;;;1.70;;
8913;SDS011;4492;48.736;9.092;2022-10-16T00:25:44;1.70;;;1.37;;
8913;SDS011;4492;48.736;9.092;2022-10-16T00:28:09;4.53;;;1.83;;
8913;SDS011;4492;48.736;9.092;2022-10-16T00:30:38;2.90;;;1.43;;
8913;SDS011;4492;48.736;9.092;2022-10-16T00:33:04;2.30;;;1.60;;
8913;SDS011;4492;48.736;9.092;2022-10-16T00:35:30;2.23;;;1.50;;
8913;SDS011;4492;48.736;9.092;2022-10-16T00:37:56;1.77;;;1.60;;
8913;SDS011;4492;48.736;9.092;2022-10-16T00:40:22;3.70;;;1.50;;
8913;SDS011;4492;48.736;9.092;2022-10-16T00:42:47;3.20;;;1.40;;
8913;SDS011;4492;48.736;9.092;2022-10-16T00:45:13;1.77;;;1.10;;
8913;SDS011;4492;48.736;9.092;2022-10-16T00:47:39;1.30;;;1.20;;
8913;SDS011;4492;48.736;9.092;2022-10-16T00:50:29;1.10;;;1.00;;
8913;SDS011;4492;48.736;9.092;2022-10-16T00:52:57;1.27;;;1.10;;
8913;SDS011;4492;48.736;9.092;2022-10-16T00:55:24;3.20;;;1.33;;
8913;SDS011;4492;48.736;9.092;2022-10-16T00:57:51;2.20;;;1.20;;
8913;SDS011;4492;48.736;9.092;2022-10-16T01:00:19;1.57;;;1.20;;
8913;SDS011;4492;48.736;9.092;2022-10-16T01:02:54;2.83;;;1.43;;
8913;SDS011;4492;48.736;9.092;2022-10-16T01:05:26;1.37;;;1.20;;
8913;SDS011;4492;48.736;9.092;2022-10-16T01:08:08;2.40;;;1.50;;
8913;SDS011;4492;48.736;9.092;2022-10-16T01:10:52;3.37;;;1.40;;
8913;SDS011;4492;48.736;9.092;2022-10-16T01:13:31;2.33;;;1.40;;
8913;SDS011;4492;48.736;9.092;2022-10-16T01:19:50;1.43;;;1.33;;
8913;SDS011;4492;48.736;9.092;2022-10-16T01:21:54;1.40;;;1.30;;
8913;SDS011;4492;48.736;9.092;2022-10-16T01:24:28;1.90;;;1.70;;
8913;SDS011;4492;48.736;9.092;2022-10-16T01:29:26;2.07;;;1.33;;
8913;SDS011;4492;48.736;9.092;2022-10-16T01:32:00;1.47;;;1.10;;
8913;SDS011;4492;48.736;9.092;2022-10-16T01:34:33;2.47;;;1.00;;
8913;SDS011;4492;48.736;9.092;2022-10-16T01:37:07;1.47;;;1.37;;
8913;SDS011;4492;48.736;9.092;2022-10-16T01:39:37;2.40;;;1.23;;
8913;SDS011;4492;48.736;9.092;2022-10-16T01:42:06;2.13;;;1.23;;
8913;SDS011;4492;48.736;9.092;2022-10-16T01:44:37;2.07;;;1.87;;
8913;SDS011;4492;48.736;9.092;2022-10-16T01:47:04;2.10;;;1.00;;
8913;SDS011;4492;48.736;9.092;2022-10-16T01:49:33;2.50;;;1.43;;
8913;SDS011;4492;48.736;9.092;2022-10-16T01:52:03;1.37;;;1.03;;
8913;SDS011;4492;48.736;9.092;2022-10-16T01:54:32;2.10;;;1.40;;
8913;SDS011;4492;48.736;9.092;2022-10-16T01:57:01;1.27;;;1.13;;
8913;SDS011;4492;48.736;9.092;2022-10-16T01:59:31;1.20;;;1.10;;
8913;SDS011;4492;48.736;9.092;2022-10-16T02:02:01;1.60;;;1.30;;
8913;SDS011;4492;48.736;9.092;2022-10-16T02:04:45;0.97;;;0.97;;
8913;SDS011;4492;48.736;9.092;2022-10-16T02:07:18;1.43;;;1.20;;
8913;SDS011;4492;48.736;9.092;2022-10-16T02:09:43;2.33;;;1.00;;
8913;SDS011;4492;48.736;9.092;2022-10-16T02:12:10;2.40;;;1.10;;
8913;SDS011;4492;48.736;9.092;2022-10-16T02:14:48;3.97;;;1.10;;
8913;SDS011;4492;48.736;9.092;2022-10-16T02:17:16;1.07;;;1.07;;
8913;SDS011;4492;48.736;9.092;2022-10-16T02:19:43;1.53;;;1.03;;
8913;SDS011;4492;48.736;9.092;2022-10-16T02:22:15;1.57;;;1.10;;
8913;SDS011;4492;48.736;9.092;2022-10-16T02:27:24;1.43;;;1.07;;
8913;SDS011;4492;48.736;9.092;2022-10-16T02:30:27;2.60;;;1.07;;
8913;SDS011;4492;48.736;9.092;2022-10-16T02:32:58;1.80;;;0.90;;
8913;SDS011;4492;48.736;9.092;2022-10-16T02:35:27;1.37;;;1.10;;
8913;SDS011;4492;48.736;9.092;2022-10-16T02:37:54;1.70;;;1.10;;
8913;SDS011;4492;48.736;9.092;2022-10-16T02:40:21;1.50;;;1.00;;
8913;SDS011;4492;48.736;9.092;2022-10-16T02:42:50;2.00;;;1.17;;
8913;SDS011;4492;48.736;9.092;2022-10-16T02:45:17;5.43;;;1.13;;
8913;SDS011;4492;48.736;9.092;2022-10-16T02:47:43;1.37;;;1.20;;
8913;SDS011;4492;48.736;9.092;2022-10-16T02:50:09;1.47;;;1.00;;
8913;SDS011;4492;48.736;9.092;2022-10-16T02:52:35;1.97;;;1.20;;
8913;SDS011;4492;48.736;9.092;2022-10-16T02:55:00;1.83;;;1.10;;
8913;SDS011;4492;48.736;9.092;2022-10-16T02:57:26;1.73;;;1.00;;
8913;SDS011;4492;48.736;9.092;2022-10-16T02:59:52;2.40;;;1.10;;
8913;SDS011;4492;48.736;9.092;2022-10-16T03:02:18;0.97;;;0.97;;
8913;SDS011;4492;48.736;9.092;2022-10-16T03:04:43;1.40;;;1.30;;
8913;SDS011;4492;48.736;9.092;2022-10-16T03:07:09;1.33;;;1.07;;
8913;SDS011;4492;48.736;9.092;2022-10-16T03:09:35;1.70;;;1.00;;
8913;SDS011;4492;48.736;9.092;2022-10-16T03:12:00;1.63;;;1.10;;
8913;SDS011;4492;48.736;9.092;2022-10-16T03:14:26;3.10;;;1.13;;
8913;SDS011;4492;48.736;9.092;2022-10-16T03:16:52;2.30;;;1.20;;
8913;SDS011;4492;48.736;9.092;2022-10-16T03:19:17;1.50;;;1.00;;
8913;SDS011;4492;48.736;9.092;2022-10-16T03:21:43;1.37;;;1.10;;
8913;SDS011;4492;48.736;9.092;2022-10-16T03:24:09;1.90;;;1.40;;
8913;SDS011;4492;48.736;9.092;2022-10-16T03:26:35;2.57;;;1.10;;
8913;SDS011;4492;48.736;9.092;2022-10-16T03:29:01;2.83;;;1.23;;
8913;SDS011;4492;48.736;9.092;2022-10-16T03:31:28;1.30;;;1.20;;
8913;SDS011;4492;48.736;9.092;2022-10-16T03:33:54;2.13;;;1.10;;
8913;SDS011;4492;48.736;9.092;2022-10-16T03:36:19;1.17;;;1.13;;
8913;SDS011;4492;48.736;9.092;2022-10-16T03:38:45;1.40;;;1.30;;
8913;SDS011;4492;48.736;9.092;2022-10-16T03:41:10;3.17;;;0.80;;
8913;SDS011;4492;48.736;9.092;2022-10-16T03:43:36;4.17;;;1.30;;
8913;SDS011;4492;48.736;9.092;2022-10-16T03:46:01;3.60;;;1.13;;
8913;SDS011;4492;48.736;9.092;2022-10-16T03:48:27;2.87;;;1.20;;
8913;SDS011;4492;48.736;9.092;2022-10-16T03:50:52;2.67;;;1.27;;
8913;SDS011;4492;48.736;9.092;2022-10-16T03:53:18;1.27;;;1.17;;
8913;SDS011;4492;48.736;9.092;2022-10-16T03:55:44;3.57;;;1.30;;
8913;SDS011;4492;48.736;9.092;2022-10-16T03:58:10;1.63;;;1.40;;
8913;SDS011;4492;48.736;9.092;2022-10-16T04:00:39;1.53;;;1.30;;
8913;SDS011;4492;48.736;9.092;2022-10-16T04:03:06;1.57;;;1.13;;
8913;SDS011;4492;48.736;9.092;2022-10-16T04:05:31;3.73;;;1.40;;
8913;SDS011;4492;48.736;9.092;2022-10-16T04:07:57;1.90;;;1.30;;
8913;SDS011;4492;48.736;9.092;2022-10-16T04:10:22;1.20;;;1.10;;
8913;SDS011;4492;48.736;9.092;2022-10-16T04:12:48;5.07;;;1.30;;
8913;SDS011;4492;48.736;9.092;2022-10-16T04:15:13;1.30;;;1.13;;
8913;SDS011;4492;48.736;9.092;2022-10-16T04:17:39;3.07;;;1.10;;
8913;SDS011;4492;48.736;9.092;2022-10-16T04:20:05;2.40;;;1.10;;
8913;SDS011;4492;48.736;9.092;2022-10-16T04:22:30;2.33;;;1.37;;
8913;SDS011;4492;48.736;9.092;2022-10-16T04:24:56;1.20;;;1.20;;
8913;SDS011;4492;48.736;9.092;2022-10-16T04:27:21;2.53;;;1.03;;
8913;SDS011;4492;48.736;9.092;2022-10-16T04:29:47;3.80;;;1.93;;
8913;SDS011;4492;48.736;9.092;2022-10-16T04:32:13;3.67;;;1.23;;
8913;SDS011;4492;48.736;9.092;2022-10-16T04:34:39;4.07;;;1.10;;
8913;SDS011;4492;48.736;9.092;2022-10-16T04:37:05;1.73;;;1.30;;
8913;SDS011;4492;48.736;9.092;2022-10-16T04:39:31;2.57;;;1.23;;
8913;SDS011;4492;48.736;9.092;2022-10-16T04:41:56;1.10;;;1.10;;
8913;SDS011;4492;48.736;9.092;2022-10-16T04:44:22;1.10;;;1.00;;
8913;SDS011;4492;48.736;9.092;2022-10-16T04:46:49;1.17;;;0.90;;
8913;SDS011;4492;48.736;9.092;2022-10-16T04:49:15;1.63;;;1.33;;
8913;SDS011;4492;48.736;9.092;2022-10-16T04:51:41;2.60;;;0.93;;
8913;SDS011;4492;48.736;9.092;2022-10-16T04:54:06;3.90;;;1.20;;
8913;SDS011;4492;48.736;9.092;2022-10-16T04:56:33;2.20;;;1.20;;
8913;SDS011;4492;48.736;9.092;2022-10-16T04:59:05;2.57;;;1.30;;
8913;SDS011;4492;48.736;9.092;2022-10-16T05:01:30;3.00;;;1.20;;
8913;SDS011;4492;48.736;9.092;2022-10-16T05:03:56;3.73;;;1.40;;
8913;SDS011;4492;48.736;9.092;2022-10-16T05:06:21;2.63;;;1.30;;
8913;SDS011;4492;48.736;9.092;2022-10-16T05:08:47;3.30;;;1.47;;
8913;SDS011;4492;48.736;9.092;2022-10-16T05:11:12;1.33;;;1.00;;
8913;SDS011;4492;48.736;9.092;2022-10-16T05:13:38;1.57;;;1.37;;
8913;SDS011;4492;48.736;9.092;2022-10-16T05:16:03;2.30;;;1.37;;
8913;SDS011;4492;48.736;9.092;2022-10-16T05:18:29;2.63;;;1.37;;
8913;SDS011;4492;48.736;9.092;2022-10-16T05:20:54;1.70;;;1.23;;
8913;SDS011;4492;48.736;9.092;2022-10-16T05:23:20;2.00;;;1.30;;
8913;SDS011;4492;48.736;9.092;2022-10-16T05:25:53;1.53;;;1.33;;
8913;SDS011;4492;48.736;9.092;2022-10-16T05:28:20;3.60;;;1.53;;
8913;SDS011;4492;48.736;9.092;2022-10-16T05:30:45;1.33;;;1.23;;
8913;SDS011;4492;48.736;9.092;2022-10-16T05:33:11;1.27;;;1.17;;
8913;SDS011;4492;48.736;9.092;2022-10-16T05:35:36;2.23;;;1.10;;
8913;SDS011;4492;48.736;9.092;2022-10-16T05:38:02;3.63;;;1.30;;
8913;SDS011;4492;48.736;9.092;2022-10-16T05:40:27;4.83;;;1.30;;
8913;SDS011;4492;48.736;9.092;2022-10-16T05:42:56;4.90;;;1.20;;
8913;SDS011;4492;48.736;9.092;2022-10-16T05:45:21;1.77;;;1.30;;
8913;SDS011;4492;48.736;9.092;2022-10-16T05:47:47;1.50;;;1.37;;
8913;SDS011;4492;48.736;9.092;2022-10-16T05:50:12;2.20;;;1.30;;
8913;SDS011;4492;48.736;9.092;2022-10-16T05:52:39;3.23;;;1.47;;
8913;SDS011;4492;48.736;9.092;2022-10-16T05:55:04;2.40;;;1.20;;
8913;SDS011;4492;48.736;9.092;2022-10-16T05:57:30;1.20;;;1.10;;
8913;SDS011;4492;48.736;9.092;2022-10-16T05:59:56;3.27;;;1.10;;
8913;SDS011;4492;48.736;9.092;2022-10-16T06:02:21;2.77;;;1.20;;
8913;SDS011;4492;48.736;9.092;2022-10-16T06:04:47;2.57;;;1.20;;
8913;SDS011;4492;48.736;9.092;2022-10-16T06:07:12;2.13;;;1.00;;
8913;SDS011;4492;48.736;9.092;2022-10-16T06:09:38;1.30;;;1.20;;
8913;SDS011;4492;48.736;9.092;2022-10-16T06:12:03;2.30;;;1.93;;
8913;SDS011;4492;48.736;9.092;2022-10-16T06:14:29;2.80;;;1.50;;
8913;SDS011;4492;48.736;9.092;2022-10-16T06:16:55;2.13;;;1.20;;
8913;SDS011;4492;48.736;9.092;2022-10-16T06:19:20;1.93;;;1.10;;
8913;SDS011;4492;48.736;9.092;2022-10-16T06:21:46;1.40;;;1.30;;
8913;SDS011;4492;48.736;9.092;2022-10-16T06:24:11;1.07;;;1.00;;
8913;SDS011;4492;48.736;9.092;2022-10-16T06:26:37;1.20;;;1.10;;
8913;SDS011;4492;48.736;9.092;2022-10-16T06:29:03;1.93;;;1.57;;
8913;SDS011;4492;48.736;9.092;2022-10-16T06:31:29;1.53;;;1.40;;
8913;SDS011;4492;48.736;9.092;2022-10-16T06:33:56;1.10;;;1.10;;
8913;SDS011;4492;48.736;9.092;2022-10-16T06:36:22;3.23;;;2.93;;
8913;SDS011;4492;48.736;9.092;2022-10-16T06:38:49;1.87;;;1.10;;
8913;SDS011;4492;48.736;9.092;2022-10-16T06:41:16;1.10;;;1.00;;
8913;SDS011;4492;48.736;9.092;2022-10-16T06:43:43;2.00;;;1.17;;
8913;SDS011;4492;48.736;9.092;2022-10-16T06:46:10;2.70;;;1.30;;
8913;SDS011;4492;48.736;9.092;2022-10-16T06:48:38;2.00;;;1.23;;
8913;SDS011;4492;48.736;9.092;2022-10-16T06:53:40;1.80;;;1.20;;
8913;SDS011;4492;48.736;9.092;2022-10-16T06:56:25;3.40;;;1.50;;
8913;SDS011;4492;48.736;9.092;2022-10-16T06:58:52;1.40;;;1.30;;
8913;SDS011;4492;48.736;9.092;2022-10-16T07:01:19;1.93;;;1.40;;
8913;SDS011;4492;48.736;9.092;2022-10-16T07:03:46;1.43;;;1.33;;
8913;SDS011;4492;48.736;9.092;2022-10-16T07:06:13;2.07;;;1.20;;
8913;SDS011;4492;48.736;9.092;2022-10-16T07:08:41;1.97;;;0.73;;
8913;SDS011;4492;48.736;9.092;2022-10-16T07:11:12;3.17;;;1.17;;
8913;SDS011;4492;48.736;9.092;2022-10-16T07:13:40;3.23;;;1.30;;
8913;SDS011;4492;48.736;9.092;2022-10-16T07:16:08;3.87;;;1.50;;
8913;SDS011;4492;48.736;9.092;2022-10-16T07:18:42;2.63;;;1.20;;
8913;SDS011;4492;48.736;9.092;2022-10-16T07:21:11;3.47;;;1.43;;
8913;SDS011;4492;48.736;9.092;2022-10-16T07:23:38;2.63;;;1.40;;
8913;SDS011;4492;48.736;9.092;2022-10-16T07:26:05;1.30;;;1.20;;
8913;SDS011;4492;48.736;9.092;2022-10-16T07:28:31;1.90;;;1.17;;
8913;SDS011;4492;48.736;9.092;2022-10-16T07:31:04;1.73;;;1.07;;
8913;SDS011;4492;48.736;9.092;2022-10-16T07:33:36;3.00;;;1.50;;
8913;SDS011;4492;48.736;9.092;2022-10-16T07:36:03;3.93;;;1.53;;
8913;SDS011;4492;48.736;9.092;2022-10-16T07:38:29;1.83;;;1.10;;
8913;SDS011;4492;48.736;9.092;2022-10-16T07:40:58;2.70;;;1.20;;
8913;SDS011;4492;48.736;9.092;2022-10-16T07:43:25;1.40;;;1.00;;
8913;SDS011;4492;48.736;9.092;2022-10-16T07:45:51;1.67;;;1.20;;
8913;SDS011;4492;48.736;9.092;2022-10-16T07:48:18;1.30;;;1.17;;
8913;SDS011;4492;48.736;9.092;2022-10-16T07:50:44;2.37;;;1.10;;
8913;SDS011;4492;48.736;9.092;2022-10-16T07:53:10;1.73;;;1.00;;
8913;SDS011;4492;48.736;9.092;2022-10-16T07:55:36;1.23;;;1.13;;
8913;SDS011;4492;48.736;9.092;2022-10-16T07:58:02;2.00;;;1.30;;
8913;SDS011;4492;48.736;9.092;2022-10-16T08:00:28;1.50;;;1.17;;
8913;SDS011;4492;48.736;9.092;2022-10-16T08:02:53;2.93;;;1.23;;
8913;SDS011;4492;48.736;9.092;2022-10-16T08:05:19;3.93;;;1.27;;
8913;SDS011;4492;48.736;9.092;2022-10-16T08:07:48;1.53;;;1.20;;
8913;SDS011;4492;48.736;9.092;2022-10-16T08:10:15;2.47;;;0.90;;
8913;SDS011;4492;48.736;9.092;2022-10-16T08:12:42;1.60;;;1.23;;
8913;SDS011;4492;48.736;9.092;2022-10-16T08:15:08;3.40;;;1.40;;
8913;SDS011;4492;48.736;9.092;2022-10-16T08:17:34;2.50;;;1.03;;
8913;SDS011;4492;48.736;9.092;2022-10-16T08:19:59;3.40;;;1.10;;
8913;SDS011;4492;48.736;9.092;2022-10-16T08:22:25;1.50;;;1.40;;
8913;SDS011;4492;48.736;9.092;2022-10-16T08:24:51;1.40;;;1.30;;
8913;SDS011;4492;48.736;9.092;2022-10-16T08:27:16;1.20;;;1.10;;
8913;SDS011;4492;48.736;9.092;2022-10-16T08:29:42;1.67;;;1.00;;
8913;SDS011;4492;48.736;9.092;2022-10-16T08:32:07;2.40;;;1.20;;
8913;SDS011;4492;48.736;9.092;2022-10-16T08:34:33;2.60;;;1.13;;
8913;SDS011;4492;48.736;9.092;2022-10-16T08:36:59;1.20;;;1.10;;
8913;SDS011;4492;48.736;9.092;2022-10-16T08:39:24;2.07;;;1.20;;
8913;SDS011;4492;48.736;9.092;2022-10-16T08:44:49;1.93;;;1.10;;
8913;SDS011;4492;48.736;9.092;2022-10-16T08:50:02;3.33;;;1.20;;
8913;SDS011;4492;48.736;9.092;2022-10-16T08:52:35;1.50;;;1.30;;
8913;SDS011;4492;48.736;9.092;2022-10-16T08:55:05;2.70;;;1.13;;
8913;SDS011;4492;48.736;9.092;2022-10-16T08:57:31;2.17;;;1.20;;
8913;SDS011;4492;48.736;9.092;2022-10-16T09:00:05;3.07;;;1.10;;
8913;SDS011;4492;48.736;9.092;2022-10-16T09:02:38;1.07;;;0.93;;
8913;SDS011;4492;48.736;9.092;2022-10-16T09:05:30;2.00;;;1.20;;
8913;SDS011;4492;48.736;9.092;2022-10-16T09:16:53;1.20;;;1.10;;
8913;SDS011;4492;48.736;9.092;2022-10-16T09:19:30;1.37;;;1.27;;
8913;SDS011;4492;48.736;9.092;2022-10-16T09:22:09;1.73;;;1.40;;
8913;SDS011;4492;48.736;9.092;2022-10-16T09:24:39;3.07;;;0.93;;
8913;SDS011;4492;48.736;9.092;2022-10-16T09:27:04;4.00;;;0.93;;
8913;SDS011;4492;48.736;9.092;2022-10-16T09:29:35;1.53;;;1.00;;
8913;SDS011;4492;48.736;9.092;2022-10-16T09:32:07;1.80;;;1.03;;
8913;SDS011;4492;48.736;9.092;2022-10-16T09:34:39;1.30;;;1.20;;
8913;SDS011;4492;48.736;9.092;2022-10-16T09:37:16;2.50;;;0.83;;
8913;SDS011;4492;48.736;9.092;2022-10-16T09:39:50;1.37;;;1.03;;
8913;SDS011;4492;48.736;9.092;2022-10-16T09:42:27;1.00;;;0.90;;
8913;SDS011;4492;48.736;9.092;2022-10-16T09:44:58;1.17;;;1.10;;
8913;SDS011;4492;48.736;9.092;2022-10-16T09:47:24;1.27;;;1.00;;
8913;SDS011;4492;48.736;9.092;2022-10-16T09:52:23;2.37;;;1.20;;
8913;SDS011;4492;48.736;9.092;2022-10-16T09:55:02;1.43;;;1.00;;
8913;SDS011;4492;48.736;9.092;2022-10-16T09:57:48;1.70;;;1.60;;
8913;SDS011;4492;48.736;9.092;2022-10-16T10:00:18;1.20;;;0.97;;
8913;SDS011;4492;48.736;9.092;2022-10-16T10:02:44;1.30;;;1.00;;
8913;SDS011;4492;48.736;9.092;2022-10-16T10:05:18;1.37;;;0.97;;
8913;SDS011;4492;48.736;9.092;2022-10-16T10:07:59;1.87;;;1.10;;
8913;SDS011;4492;48.736;9.092;2022-10-16T10:10:35;1.20;;;1.10;;
8913;SDS011;4492;48.736;9.092;2022-10-16T10:13:16;1.10;;;1.00;;
8913;SDS011;4492;48.736;9.092;2022-10-16T10:15:45;1.03;;;0.97;;
8913;SDS011;4492;48.736;9.092;2022-10-16T10:18:17;1.20;;;1.10;;
8913;SDS011;4492;48.736;9.092;2022-10-16T10:20:45;2.47;;;1.23;;
8913;SDS011;4492;48.736;9.092;2022-10-16T10:23:21;1.00;;;1.00;;
8913;SDS011;4492;48.736;9.092;2022-10-16T10:31:30;2.40;;;1.10;;
8913;SDS011;4492;48.736;9.092;2022-10-16T10:47:53;1.50;;;1.40;;
8913;SDS011;4492;48.736;9.092;2022-10-16T10:53:16;1.20;;;1.10;;
8913;SDS011;4492;48.736;9.092;2022-10-16T10:56:00;3.23;;;1.20;;
8913;SDS011;4492;48.736;9.092;2022-10-16T11:01:36;1.73;;;0.90;;
8913;SDS011;4492;48.736;9.092;2022-10-16T11:07:11;3.97;;;1.30;;
8913;SDS011;4492;48.736;9.092;2022-10-16T11:09:42;1.97;;;1.40;;
8913;SDS011;4492;48.736;9.092;2022-10-16T11:12:33;4.83;;;1.43;;
8913;SDS011;4492;48.736;9.092;2022-10-16T11:15:04;3.27;;;1.40;;
8913;SDS011;4492;48.736;9.092;2022-10-16T11:17:41;2.33;;;1.33;;
8913;SDS011;4492;48.736;9.092;2022-10-16T11:25:37;2.63;;;1.53;;
8913;SDS011;4492;48.736;9.092;2022-10-16T11:30:53;2.87;;;1.57;;
8913;SDS011;4492;48.736;9.092;2022-10-16T11:38:41;1.77;;;1.20;;
8913;SDS011;4492;48.736;9.092;2022-10-16T11:41:24;2.43;;;1.50;;
8913;SDS011;4492;48.736;9.092;2022-10-16T11:44:33;2.93;;;1.23;;
8913;SDS011;4492;48.736;9.092;2022-10-16T11:47:19;1.63;;;1.27;;
8913;SDS011;4492;48.736;9.092;2022-10-16T11:49:49;2.27;;;1.67;;
8913;SDS011;4492;48.736;9.092;2022-10-16T11:52:25;1.73;;;1.23;;
8913;SDS011;4492;48.736;9.092;2022-10-16T11:57:49;2.30;;;1.33;;
8913;SDS011;4492;48.736;9.092;2022-10-16T12:00:23;4.53;;;1.13;;
8913;SDS011;4492;48.736;9.092;2022-10-16T12:05:36;4.30;;;1.00;;
8913;SDS011;4492;48.736;9.092;2022-10-16T12:08:13;3.40;;;1.13;;
8913;SDS011;4492;48.736;9.092;2022-10-16T12:10:41;1.33;;;1.17;;
8913;SDS011;4492;48.736;9.092;2022-10-16T12:16:03;1.33;;;1.17;;
8913;SDS011;4492;48.736;9.092;2022-10-16T12:18:45;1.73;;;1.20;;
8913;SDS011;4492;48.736;9.092;2022-10-16T12:21:12;1.33;;;1.23;;
8913;SDS011;4492;48.736;9.092;2022-10-16T12:26:30;1.13;;;1.03;;
8913;SDS011;4492;48.736;9.092;2022-10-16T12:29:10;2.57;;;1.40;;
8913;SDS011;4492;48.736;9.092;2022-10-16T12:31:56;1.20;;;1.20;;
8913;SDS011;4492;48.736;9.092;2022-10-16T12:37:08;1.37;;;1.27;;
8913;SDS011;4492;48.736;9.092;2022-10-16T12:39:38;1.37;;;1.00;;
8913;SDS011;4492;48.736;9.092;2022-10-16T12:42:05;4.27;;;3.07;;
8913;SDS011;4492;48.736;9.092;2022-10-16T12:44:45;1.07;;;1.07;;
8913;SDS011;4492;48.736;9.092;2022-10-16T12:47:22;2.93;;;1.20;;
8913;SDS011;4492;48.736;9.092;2022-10-16T12:49:57;1.20;;;1.10;;
8913;SDS011;4492;48.736;9.092;2022-10-16T12:55:01;1.83;;;1.03;;
8913;SDS011;4492;48.736;9.092;2022-10-16T12:57:30;1.10;;;1.00;;
8913;SDS011;4492;48.736;9.092;2022-10-16T13:00:21;3.50;;;1.20;;
8913;SDS011;4492;48.736;9.092;2022-10-16T13:02:57;1.63;;;1.10;;
8913;SDS011;4492;48.736;9.092;2022-10-16T13:08:25;1.20;;;1.20;;
8913;SDS011;4492;48.736;9.092;2022-10-16T13:16:37;2.70;;;1.30;;
8913;SDS011;4492;48.736;9.092;2022-10-16T13:19:23;1.40;;;1.30;;
8913;SDS011;4492;48.736;9.092;2022-10-16T13:27:35;1.60;;;1.50;;
8913;SDS011;4492;48.736;9.092;2022-10-16T13:30:16;2.63;;;1.60;;
8913;SDS011;4492;48.736;9.092;2022-10-16T13:32:45;1.63;;;1.53;;
8913;SDS011;4492;48.736;9.092;2022-10-16T13:35:24;2.40;;;1.47;;
8913;SDS011;4492;48.736;9.092;2022-10-16T13:38:02;1.60;;;1.27;;
8913;SDS011;4492;48.736;9.092;2022-10-16T13:40:52;2.77;;;1.40;;
8913;SDS011;4492;48.736;9.092;2022-10-16T13:43:41;3.40;;;1.73;;
8913;SDS011;4492;48.736;9.092;2022-10-16T13:46:15;1.40;;;1.30;;
8913;SDS011;4492;48.736;9.092;2022-10-16T13:48:42;1.80;;;1.57;;
8913;SDS011;4492;48.736;9.092;2022-10-16T13:51:13;1.70;;;1.60;;
8913;SDS011;4492;48.736;9.092;2022-10-16T13:53:43;1.60;;;1.50;;
8913;SDS011;4492;48.736;9.092;2022-10-16T13:56:10;1.50;;;1.40;;
8913;SDS011;4492;48.736;9.092;2022-10-16T13:58:38;3.00;;;1.70;;
8913;SDS011;4492;48.736;9.092;2022-10-16T14:01:04;1.63;;;1.40;;
8913;SDS011;4492;48.736;9.092;2022-10-16T14:03:50;1.80;;;1.70;;
8913;SDS011;4492;48.736;9.092;2022-10-16T14:06:20;1.50;;;1.40;;
8913;SDS011;4492;48.736;9.092;2022-10-16T14:08:52;2.57;;;1.60;;
8913;SDS011;4492;48.736;9.092;2022-10-16T14:11:24;5.47;;;1.30;;
8913;SDS011;4492;48.736;9.092;2022-10-16T14:13:51;1.40;;;1.30;;
8913;SDS011;4492;48.736;9.092;2022-10-16T14:16:18;1.47;;;1.47;;
8913;SDS011;4492;48.736;9.092;2022-10-16T14:18:46;2.20;;;1.70;;
8913;SDS011;4492;48.736;9.092;2022-10-16T14:21:21;3.17;;;1.63;;
8913;SDS011;4492;48.736;9.092;2022-10-16T14:23:46;2.77;;;1.50;;
8913;SDS011;4492;48.736;9.092;2022-10-16T14:26:13;2.40;;;1.33;;
8913;SDS011;4492;48.736;9.092;2022-10-16T14:28:41;1.37;;;1.27;;
8913;SDS011;4492;48.736;9.092;2022-10-16T14:31:41;1.93;;;1.40;;
8913;SDS011;4492;48.736;9.092;2022-10-16T14:34:01;5.40;;;1.50;;
8913;SDS011;4492;48.736;9.092;2022-10-16T14:36:27;2.00;;;1.67;;
8913;SDS011;4492;48.736;9.092;2022-10-16T14:38:57;1.83;;;1.60;;
8913;SDS011;4492;48.736;9.092;2022-10-16T14:41:26;5.43;;;1.90;;
8913;SDS011;4492;48.736;9.092;2022-10-16T14:43:53;1.60;;;1.50;;
8913;SDS011;4492;48.736;9.092;2022-10-16T14:46:21;1.77;;;1.67;;
8913;SDS011;4492;48.736;9.092;2022-10-16T14:48:56;2.70;;;1.60;;
8913;SDS011;4492;48.736;9.092;2022-10-16T14:51:25;1.70;;;1.60;;
8913;SDS011;4492;48.736;9.092;2022-10-16T14:53:51;2.27;;;1.50;;
8913;SDS011;4492;48.736;9.092;2022-10-16T14:56:24;5.57;;;1.90;;
8913;SDS011;4492;48.736;9.092;2022-10-16T14:58:53;3.90;;;1.47;;
8913;SDS011;4492;48.736;9.092;2022-10-16T15:01:19;1.77;;;1.67;;
8913;SDS011;4492;48.736;9.092;2022-10-16T15:03:45;2.30;;;1.60;;
8913;SDS011;4492;48.736;9.092;2022-10-16T15:06:11;4.00;;;1.90;;
8913;SDS011;4492;48.736;9.092;2022-10-16T15:08:38;1.60;;;1.50;;
8913;SDS011;4492;48.736;9.092;2022-10-16T15:11:04;1.60;;;1.50;;
8913;SDS011;4492;48.736;9.092;2022-10-16T15:13:34;2.10;;;1.70;;
8913;SDS011;4492;48.736;9.092;2022-10-16T15:16:00;1.73;;;1.50;;
8913;SDS011;4492;48.736;9.092;2022-10-16T15:18:25;3.17;;;1.50;;
8913;SDS011;4492;48.736;9.092;2022-10-16T15:20:51;3.97;;;1.90;;
8913;SDS011;4492;48.736;9.092;2022-10-16T15:23:18;2.83;;;1.60;;
8913;SDS011;4492;48.736;9.092;2022-10-16T15:25:46;4.03;;;1.83;;
8913;SDS011;4492;48.736;9.092;2022-10-16T15:28:13;2.33;;;1.53;;
8913;SDS011;4492;48.736;9.092;2022-10-16T15:30:40;1.87;;;1.77;;
8913;SDS011;4492;48.736;9.092;2022-10-16T15:33:10;2.63;;;1.97;;
8913;SDS011;4492;48.736;9.092;2022-10-16T15:35:38;2.43;;;1.77;;
8913;SDS011;4492;48.736;9.092;2022-10-16T15:38:04;2.00;;;1.90;;
8913;SDS011;4492;48.736;9.092;2022-10-16T15:40:29;1.60;;;1.50;;
8913;SDS011;4492;48.736;9.092;2022-10-16T15:42:55;2.03;;;1.57;;
8913;SDS011;4492;48.736;9.092;2022-10-16T15:45:21;3.07;;;1.60;;
8913;SDS011;4492;48.736;9.092;2022-10-16T15:47:46;1.47;;;1.40;;
8913;SDS011;4492;48.736;9.092;2022-10-16T15:50:12;1.80;;;1.70;;
8913;SDS011;4492;48.736;9.092;2022-10-16T15:52:39;4.10;;;1.73;;
8913;SDS011;4492;48.736;9.092;2022-10-16T15:55:09;1.93;;;1.80;;
8913;SDS011;4492;48.736;9.092;2022-10-16T15:57:35;2.40;;;2.07;;
8913;SDS011;4492;48.736;9.092;2022-10-16T16:00:04;2.30;;;2.20;;
8913;SDS011;4492;48.736;9.092;2022-10-16T16:02:31;3.87;;;2.93;;
8913;SDS011;4492;48.736;9.092;2022-10-16T16:04:57;3.17;;;2.73;;
8913;SDS011;4492;48.736;9.092;2022-10-16T16:07:22;3.93;;;3.53;;
8913;SDS011;4492;48.736;9.092;2022-10-16T16:09:48;4.03;;;3.63;;
8913;SDS011;4492;48.736;9.092;2022-10-16T16:12:13;4.87;;;4.43;;
8913;SDS011;4492;48.736;9.092;2022-10-16T16:14:39;4.90;;;4.40;;
8913;SDS011;4492;48.736;9.092;2022-10-16T16:17:05;5.13;;;4.20;;
8913;SDS011;4492;48.736;9.092;2022-10-16T16:19:31;4.33;;;3.93;;
8913;SDS011;4492;48.736;9.092;2022-10-16T16:21:57;3.83;;;3.53;;
8913;SDS011;4492;48.736;9.092;2022-10-16T16:24:22;4.10;;;3.27;;
8913;SDS011;4492;48.736;9.092;2022-10-16T16:26:48;3.90;;;3.27;;
8913;SDS011;4492;48.736;9.092;2022-10-16T16:29:14;3.40;;;3.10;;
8913;SDS011;4492;48.736;9.092;2022-10-16T16:31:40;8.80;;;6.00;;
8913;SDS011;4492;48.736;9.092;2022-10-16T16:34:07;5.30;;;4.80;;
8913;SDS011;4492;48.736;9.092;2022-10-16T16:36:33;7.93;;;4.93;;
8913;SDS011;4492;48.736;9.092;2022-10-16T16:38:59;6.67;;;4.20;;
8913;SDS011;4492;48.736;9.092;2022-10-16T16:41:26;8.47;;;5.70;;
8913;SDS011;4492;48.736;9.092;2022-10-16T16:43:54;7.40;;;5.70;;
8913;SDS011;4492;48.736;9.092;2022-10-16T16:46:21;5.97;;;4.60;;
8913;SDS011;4492;48.736;9.092;2022-10-16T16:48:46;5.70;;;3.60;;
8913;SDS011;4492;48.736;9.092;2022-10-16T16:51:15;5.77;;;3.50;;
8913;SDS011;4492;48.736;9.092;2022-10-16T16:53:44;3.47;;;3.10;;
8913;SDS011;4492;48.736;9.092;2022-10-16T16:56:11;4.23;;;2.87;;
8913;SDS011;4492;48.736;9.092;2022-10-16T16:58:37;3.27;;;2.63;;
8913;SDS011;4492;48.736;9.092;2022-10-16T17:01:03;3.30;;;2.50;;
8913;SDS011;4492;48.736;9.092;2022-10-16T17:03:31;2.80;;;2.60;;
8913;SDS011;4492;48.736;9.092;2022-10-16T17:05:59;3.57;;;2.20;;
8913;SDS011;4492;48.736;9.092;2022-10-16T17:08:27;5.23;;;2.37;;